Time;durP1;ratioP1;P1;durP2;ratioP2;P2;SDS_P1;SDS_P2;PMS_P1;PMS_P2;Temp;Humidity;BMP_temperature;BMP_pressure;BME280_temperature;BME280_humidity;BME280_pressure;Samples;Min_cycle;Max_cycle;Signal;HPM_P1;HPM_P2
2023/08/04 00:01:21;;;;;;;4.10;1.38;;;16.10;99.90;;;;;;5074323;28;20535;-79
2023/08/04 00:03:46;;;;;;;2.17;1.40;;;16.00;99.90;;;;;;5076903;28;20047;-79
2023/08/04 00:06:12;;;;;;;2.08;1.20;;;16.00;99.90;;;;;;5092103;28;20537;-79
2023/08/04 00:08:37;;;;;;;;;;;16.00;99.90;;;;;;5076382;28;20414;-79
2023/08/04 00:11:04;;;;;;;3.90;1.30;;;16.10;99.90;;;;;;5093077;28;20014;-79
2023/08/04 00:13:30;;;;;;;;;;;16.00;99.90;;;;;;5093065;28;20039;-79
2023/08/04 00:16:07;;;;;;;2.25;1.15;;;16.00;99.90;;;;;;5093804;28;19919;-78
2023/08/04 00:18:33;;;;;;;2.60;1.10;;;16.00;99.90;;;;;;5093099;28;20032;-79
2023/08/04 00:20:59;;;;;;;;;;;15.90;99.90;;;;;;5076423;28;20051;-79
2023/08/04 00:23:25;;;;;;;1.73;1.20;;;15.90;99.90;;;;;;5091651;28;19972;-79
2023/08/04 00:25:50;;;;;;;4.45;1.70;;;15.90;99.90;;;;;;5074433;28;20050;-79
2023/08/04 00:28:16;;;;;;;3.28;1.40;;;15.90;99.90;;;;;;5087227;28;20035;-78
2023/08/04 00:30:42;;;;;;;2.75;1.38;;;15.90;99.90;;;;;;5074130;28;20024;-78
2023/08/04 00:33:08;;;;;;;3.30;1.27;;;15.90;99.90;;;;;;5072311;28;20449;-78
2023/08/04 00:35:33;;;;;;;;;;;15.90;99.90;;;;;;5092634;28;20126;-78
2023/08/04 00:37:59;;;;;;;2.03;1.10;;;15.80;99.90;;;;;;5092504;28;19995;-79
2023/08/04 00:40:25;;;;;;;4.18;1.30;;;15.80;99.90;;;;;;5092499;28;20078;-79
2023/08/04 00:42:50;;;;;;;2.60;1.30;;;15.90;99.90;;;;;;5090984;28;20031;-79
2023/08/04 00:45:16;;;;;;;1.38;0.80;;;15.80;99.90;;;;;;5075646;28;20036;-79
2023/08/04 00:47:42;;;;;;;2.25;0.90;;;15.80;99.90;;;;;;5059599;28;20039;-79
2023/08/04 00:50:09;;;;;;;1.50;0.93;;;15.80;99.90;;;;;;5073701;28;20067;-79
2023/08/04 00:52:37;;;;;;;1.65;0.95;;;15.80;99.90;;;;;;5075823;28;20126;-79
2023/08/04 00:55:03;;;;;;;2.40;1.10;;;15.80;99.90;;;;;;5075735;28;20135;-80
2023/08/04 00:57:29;;;;;;;1.48;0.80;;;15.80;99.90;;;;;;5092255;28;20529;-80
2023/08/04 00:59:55;;;;;;;3.28;1.15;;;15.80;99.90;;;;;;5090626;28;20043;-79
2023/08/04 01:02:21;;;;;;;2.70;1.27;;;15.80;99.90;;;;;;5093250;28;20046;-79
2023/08/04 01:04:47;;;;;;;2.92;1.00;;;15.70;99.90;;;;;;5076170;28;20051;-79
2023/08/04 01:07:24;;;;;;;2.53;0.77;;;15.80;99.90;;;;;;5089539;28;20132;-79
2023/08/04 01:09:53;;;;;;;3.33;1.17;;;15.70;99.90;;;;;;5043179;28;20418;-79
2023/08/04 01:12:36;;;;;;;4.10;1.20;;;15.80;99.90;;;;;;5089331;28;20544;-79
2023/08/04 01:15:03;;;;;;;3.22;1.08;;;15.80;99.90;;;;;;5089373;28;20520;-79
2023/08/04 01:17:30;;;;;;;3.63;1.25;;;15.70;99.90;;;;;;5089647;28;20368;-79
2023/08/04 01:19:57;;;;;;;2.95;1.10;;;15.70;99.90;;;;;;5078598;28;20152;-79
2023/08/04 01:22:24;;;;;;;1.38;1.00;;;15.70;99.90;;;;;;5089381;28;20040;-79
2023/08/04 01:24:51;;;;;;;2.95;1.00;;;15.70;99.90;;;;;;5069278;28;20039;-79
2023/08/04 01:27:37;;;;;;;1.60;1.02;;;15.70;99.90;;;;;;5079587;28;20044;-79
2023/08/04 01:30:05;;;;;;;1.52;0.80;;;15.80;99.90;;;;;;5089142;28;20050;-80
2023/08/04 01:32:31;;;;;;;2.97;1.00;;;15.70;99.90;;;;;;5089083;28;20140;-79
2023/08/04 01:34:57;;;;;;;2.15;1.10;;;15.70;99.90;;;;;;5089272;28;20166;-79
2023/08/04 01:37:22;;;;;;;1.27;0.80;;;15.70;99.90;;;;;;5089203;28;20513;-79
2023/08/04 01:39:48;;;;;;;2.13;0.80;;;15.70;99.90;;;;;;5087129;28;20048;-79
2023/08/04 01:42:13;;;;;;;2.13;0.80;;;15.70;99.90;;;;;;5071152;28;20040;-79
2023/08/04 01:44:39;;;;;;;2.58;0.73;;;15.80;99.90;;;;;;5053613;28;20042;-79
2023/08/04 01:47:07;;;;;;;2.05;0.75;;;15.80;99.90;;;;;;5061336;28;20040;-79
2023/08/04 01:49:33;;;;;;;0.98;0.63;;;15.80;99.90;;;;;;5068914;28;20051;-80
2023/08/04 01:51:58;;;;;;;2.67;1.02;;;15.80;99.90;;;;;;5087839;28;20403;-79
2023/08/04 01:54:24;;;;;;;2.67;1.00;;;15.70;99.90;;;;;;5053859;28;20058;-79
2023/08/04 01:56:51;;;;;;;1.40;0.80;;;15.80;99.90;;;;;;5069130;28;20400;-79
2023/08/04 01:59:16;;;;;;;4.50;1.40;;;15.70;99.90;;;;;;5071891;28;20054;-79
2023/08/04 02:01:42;;;;;;;2.65;1.50;;;15.80;99.90;;;;;;5086919;28;20040;-79
2023/08/04 02:04:08;;;;;;;3.08;0.93;;;15.70;99.90;;;;;;5087730;28;20040;-79
2023/08/04 02:06:33;;;;;;;1.40;0.90;;;15.70;99.90;;;;;;5082154;28;20058;-79
2023/08/04 02:08:59;;;;;;;3.70;1.13;;;15.80;99.90;;;;;;5062872;28;20040;-79
2023/08/04 02:11:25;;;;;;;1.50;1.00;;;15.70;99.90;;;;;;5051860;28;20095;-79
2023/08/04 02:13:50;;;;;;;4.32;1.25;;;15.70;99.90;;;;;;5068106;28;20059;-79
2023/08/04 02:16:16;;;;;;;2.40;1.30;;;15.80;99.90;;;;;;5066165;28;20047;-79
2023/08/04 02:18:41;;;;;;;3.00;1.33;;;15.70;99.90;;;;;;5062656;28;20541;-79
2023/08/04 02:21:07;;;;;;;2.78;1.30;;;15.80;99.90;;;;;;5068853;28;20494;-79
2023/08/04 02:23:33;;;;;;;2.65;1.40;;;15.80;99.90;;;;;;5050967;28;20513;-79
2023/08/04 02:25:58;;;;;;;2.50;1.10;;;15.80;99.90;;;;;;5022975;28;20049;-79
2023/08/04 02:28:24;;;;;;;3.20;1.30;;;15.80;99.90;;;;;;5068580;28;20032;-79
2023/08/04 02:30:50;;;;;;;2.72;1.10;;;15.90;99.90;;;;;;5050870;28;20054;-79
2023/08/04 02:33:15;;;;;;;1.77;1.05;;;15.90;99.90;;;;;;5051457;28;20036;-79
2023/08/04 02:35:41;;;;;;;2.60;0.98;;;15.90;99.90;;;;;;5068864;28;20476;-79
2023/08/04 02:38:07;;;;;;;2.95;1.30;;;15.80;99.90;;;;;;5069395;28;20488;-79
2023/08/04 02:40:37;;;;;;;2.25;1.20;;;15.80;99.90;;;;;;5058441;28;20106;-79
2023/08/04 02:43:02;;;;;;;2.58;1.50;;;15.70;99.90;;;;;;5067736;28;20498;-79
2023/08/04 02:45:28;;;;;;;2.78;1.52;;;15.80;99.90;;;;;;5050800;28;20086;-79
2023/08/04 02:47:54;;;;;;;2.53;1.40;;;15.80;99.90;;;;;;5068754;28;20041;-79
2023/08/04 02:50:20;;;;;;;3.08;1.20;;;15.80;99.90;;;;;;5027397;28;20106;-79
2023/08/04 02:52:45;;;;;;;2.05;1.20;;;15.70;99.90;;;;;;5070685;28;20072;-79
2023/08/04 02:55:12;;;;;;;2.55;1.25;;;15.60;99.90;;;;;;5071728;28;20044;-79
2023/08/04 02:57:38;;;;;;;2.47;1.10;;;15.70;99.90;;;;;;5054478;28;20071;-79
2023/08/04 03:00:04;;;;;;;;;;;15.70;99.90;;;;;;5068039;28;20040;-79
2023/08/04 03:02:30;;;;;;;2.53;1.52;;;15.60;99.90;;;;;;5044203;28;20364;-79
2023/08/04 03:04:56;;;;;;;1.88;1.27;;;15.50;99.90;;;;;;5049185;28;20070;-79
2023/08/04 03:07:21;;;;;;;2.40;1.58;;;15.50;99.90;;;;;;5083924;28;20101;-79
2023/08/04 03:09:47;;;;;;;2.55;1.42;;;15.60;99.90;;;;;;5074465;28;20055;-79
2023/08/04 03:12:13;;;;;;;3.70;1.60;;;15.60;99.90;;;;;;5053180;28;20468;-79
2023/08/04 03:14:38;;;;;;;3.60;1.60;;;15.50;99.90;;;;;;5091136;28;20127;-79
2023/08/04 03:17:04;;;;;;;1.63;1.30;;;15.40;99.90;;;;;;5075073;28;20048;-79
2023/08/04 03:19:30;;;;;;;;;;;15.60;99.90;;;;;;5088359;28;20051;-79
2023/08/04 03:21:55;;;;;;;3.05;1.63;;;15.40;99.90;;;;;;5091617;28;19919;-79
2023/08/04 03:24:21;;;;;;;2.15;1.52;;;15.50;99.90;;;;;;5073624;28;20048;-79
2023/08/04 03:26:47;;;;;;;2.13;1.52;;;15.50;99.90;;;;;;5089671;28;20044;-79
2023/08/04 03:29:12;;;;;;;4.47;1.75;;;15.40;99.90;;;;;;5089229;28;20119;-79
2023/08/04 03:31:38;;;;;;;2.00;1.40;;;15.50;99.90;;;;;;5091057;28;20040;-79
2023/08/04 03:34:04;;;;;;;3.33;1.50;;;15.30;99.90;;;;;;5088091;28;20047;-79
2023/08/04 03:36:31;;;;;;;2.40;1.45;;;15.40;99.90;;;;;;5073569;28;20082;-79
2023/08/04 03:38:56;;;;;;;2.70;1.58;;;15.30;99.90;;;;;;5069318;28;20052;-79
2023/08/04 03:41:22;;;;;;;2.88;1.42;;;15.40;99.90;;;;;;5055396;28;20051;-79
2023/08/04 03:43:47;;;;;;;2.00;1.40;;;15.30;99.90;;;;;;5088670;28;20040;-79
2023/08/04 03:46:13;;;;;;;2.88;1.42;;;15.30;99.90;;;;;;5056372;28;20036;-79
2023/08/04 03:48:39;;;;;;;2.38;1.42;;;15.30;99.90;;;;;;5072929;28;20487;-79
2023/08/04 03:51:04;;;;;;;2.25;1.40;;;15.30;99.90;;;;;;5073509;28;20044;-79
2023/08/04 03:53:30;;;;;;;2.20;1.30;;;15.20;99.90;;;;;;5089923;28;20115;-79
2023/08/04 03:55:56;;;;;;;2.13;1.30;;;15.30;99.90;;;;;;5072556;28;20044;-79
2023/08/04 03:58:21;;;;;;;2.95;1.58;;;15.10;99.90;;;;;;5071990;28;20109;-79
2023/08/04 04:00:47;;;;;;;2.33;1.30;;;15.20;99.90;;;;;;5089108;28;20046;-80
2023/08/04 04:03:13;;;;;;;2.40;1.20;;;15.30;99.90;;;;;;5085328;28;20044;-80
2023/08/04 04:05:38;;;;;;;1.83;1.40;;;15.20;99.90;;;;;;5089157;28;20047;-79
2023/08/04 04:08:04;;;;;;;2.28;1.50;;;15.40;99.90;;;;;;5075081;28;20047;-79
2023/08/04 04:10:30;;;;;;;2.75;1.65;;;15.30;99.90;;;;;;5075764;28;20119;-80
2023/08/04 04:12:56;;;;;;;1.80;1.23;;;15.30;99.90;;;;;;5074679;28;20372;-80
2023/08/04 04:15:21;;;;;;;1.67;1.58;;;15.40;99.90;;;;;;5075462;28;20046;-80
2023/08/04 04:17:47;;;;;;;1.83;1.30;;;15.40;99.90;;;;;;5060018;28;20059;-79
2023/08/04 04:20:13;;;;;;;2.20;1.38;;;15.30;99.90;;;;;;5090925;28;20051;-80
2023/08/04 04:22:39;;;;;;;2.40;1.42;;;15.30;99.90;;;;;;5074841;28;20052;-80
2023/08/04 04:25:05;;;;;;;3.55;1.48;;;15.40;99.90;;;;;;5075981;28;20088;-80
2023/08/04 04:27:30;;;;;;;3.42;1.80;;;15.50;99.90;;;;;;5091718;28;20031;-80
2023/08/04 04:29:56;;;;;;;3.17;1.40;;;15.50;99.90;;;;;;5075296;28;20043;-80
2023/08/04 04:32:21;;;;;;;2.60;1.50;;;15.30;99.90;;;;;;5090702;28;20054;-80
2023/08/04 04:34:47;;;;;;;2.20;1.42;;;15.50;99.90;;;;;;5073548;28;20046;-80
2023/08/04 04:37:13;;;;;;;2.42;1.40;;;15.40;99.90;;;;;;5059024;28;20117;-80
2023/08/04 04:39:38;;;;;;;1.95;1.17;;;15.30;99.90;;;;;;5073673;28;20170;-80
2023/08/04 04:42:05;;;;;;;3.28;1.30;;;15.40;99.90;;;;;;5091746;28;20039;-79
2023/08/04 04:44:31;;;;;;;1.17;1.08;;;15.40;99.90;;;;;;5076403;28;20083;-79
2023/08/04 04:46:57;;;;;;;1.02;0.93;;;15.40;99.90;;;;;;5091472;28;20043;-79
2023/08/04 04:49:22;;;;;;;1.05;0.90;;;15.50;99.90;;;;;;5092531;28;20039;-79
2023/08/04 04:51:48;;;;;;;1.65;0.90;;;15.40;99.90;;;;;;5073134;28;20047;-80
2023/08/04 04:54:14;;;;;;;0.80;0.73;;;15.30;99.90;;;;;;5072723;28;20118;-80
2023/08/04 04:56:39;;;;;;;0.68;0.60;;;15.40;99.90;;;;;;5073311;28;20172;-80
2023/08/04 04:59:05;;;;;;;1.27;0.80;;;15.50;99.90;;;;;;5088957;28;20130;-80
2023/08/04 05:01:31;;;;;;;1.45;0.90;;;15.40;99.90;;;;;;5069817;28;20043;-79
2023/08/04 05:03:56;;;;;;;1.30;0.98;;;15.40;99.90;;;;;;5090280;28;20048;-81
2023/08/04 05:06:22;;;;;;;1.58;1.02;;;15.40;99.90;;;;;;5072048;28;20055;-77
2023/08/04 05:08:48;;;;;;;1.92;1.02;;;15.40;99.90;;;;;;5074823;28;20036;-78
2023/08/04 05:11:13;;;;;;;1.45;1.13;;;15.60;99.90;;;;;;5090598;28;20061;-78
2023/08/04 05:13:41;;;;;;;1.00;0.90;;;15.50;99.90;;;;;;5095699;28;20139;-77
2023/08/04 05:16:07;;;;;;;1.60;1.10;;;15.60;99.90;;;;;;5076107;28;20039;-77
2023/08/04 05:18:33;;;;;;;;;;;15.70;99.90;;;;;;5093131;28;20081;-77
2023/08/04 05:20:59;;;;;;;1.80;1.20;;;15.70;99.90;;;;;;5095223;28;20001;-77
2023/08/04 05:23:24;;;;;;;1.42;0.95;;;15.70;99.90;;;;;;5087529;28;20046;-77
2023/08/04 05:25:50;;;;;;;1.88;1.10;;;15.70;99.90;;;;;;5088201;28;20035;-77
2023/08/04 05:28:30;;;;;;;1.10;1.00;;;15.70;99.90;;;;;;5074859;27;20452;-77
2023/08/04 05:30:58;;;;;;;1.27;1.08;;;15.80;99.90;;;;;;5072443;28;20036;-77
2023/08/04 05:33:25;;;;;;;1.27;0.90;;;15.90;99.90;;;;;;5070711;28;20035;-77
2023/08/04 05:35:51;;;;;;;2.15;1.17;;;15.90;99.90;;;;;;5088310;28;20047;-79
2023/08/04 05:38:16;;;;;;;;;;;15.90;99.90;;;;;;5086085;28;20036;-78
2023/08/04 05:40:44;;;;;;;1.45;0.90;;;16.00;99.90;;;;;;5058882;28;20385;-78
2023/08/04 05:43:11;;;;;;;1.50;1.00;;;15.80;99.90;;;;;;5075669;28;20387;-78
2023/08/04 05:45:42;;;;;;;1.45;0.82;;;15.80;99.90;;;;;;5088602;28;20422;-78
2023/08/04 05:48:08;;;;;;;1.67;1.15;;;16.00;99.90;;;;;;5091725;28;20062;-78
2023/08/04 05:50:34;;;;;;;2.05;1.08;;;15.90;99.90;;;;;;5074299;28;20317;-78
2023/08/04 05:53:00;;;;;;;1.38;1.00;;;16.00;99.90;;;;;;5072089;28;20069;-78
2023/08/04 05:55:25;;;;;;;;;;;16.10;99.90;;;;;;5092040;28;20036;-79
2023/08/04 05:57:51;;;;;;;2.10;1.20;;;16.10;99.90;;;;;;5090567;28;20413;-81
2023/08/04 06:00:18;;;;;;;2.42;1.38;;;16.10;99.90;;;;;;5054729;28;20039;-82
2023/08/04 06:02:45;;;;;;;1.73;1.20;;;16.10;99.90;;;;;;5088714;28;20044;-80
2023/08/04 06:05:11;;;;;;;1.02;0.93;;;16.20;99.90;;;;;;5071914;28;20402;-80
2023/08/04 06:07:39;;;;;;;1.67;1.23;;;16.10;99.90;;;;;;5074989;28;20410;-80
2023/08/04 06:10:05;;;;;;;2.95;1.52;;;16.10;99.90;;;;;;5089441;28;20490;-81
2023/08/04 06:12:31;;;;;;;1.20;1.05;;;16.20;99.90;;;;;;5074316;28;20470;-80
2023/08/04 06:14:56;;;;;;;;;;;16.20;99.90;;;;;;5089159;28;20063;-80
2023/08/04 06:17:22;;;;;;;2.33;1.55;;;16.20;99.90;;;;;;5090298;28;19951;-79
2023/08/04 06:19:47;;;;;;;1.38;1.00;;;16.20;99.90;;;;;;5073249;28;20051;-79
2023/08/04 06:22:13;;;;;;;1.10;1.00;;;16.30;99.90;;;;;;5091956;28;20358;-80
2023/08/04 06:24:39;;;;;;;;;;;16.30;99.90;;;;;;5072600;28;20474;-80
2023/08/04 06:27:05;;;;;;;2.72;1.50;;;16.30;99.90;;;;;;5076720;28;19923;-80
2023/08/04 06:29:31;;;;;;;2.33;1.30;;;16.30;99.90;;;;;;5077367;28;20177;-80
2023/08/04 06:31:57;;;;;;;;;;;16.40;99.90;;;;;;5094633;28;20158;-80
2023/08/04 06:34:23;;;;;;;1.42;1.20;;;16.40;99.90;;;;;;5093840;28;19959;-80
2023/08/04 06:36:48;;;;;;;1.75;1.20;;;16.50;99.90;;;;;;5090310;28;20047;-79
2023/08/04 06:39:14;;;;;;;2.10;1.45;;;16.50;99.90;;;;;;5093126;28;20043;-80
2023/08/04 06:41:41;;;;;;;;;;;16.50;99.90;;;;;;5073366;28;20134;-79
2023/08/04 06:44:07;;;;;;;2.53;1.60;;;16.60;99.90;;;;;;5095578;28;20347;-79
2023/08/04 06:46:32;;;;;;;3.35;1.92;;;16.60;99.90;;;;;;5052725;28;20055;-80
2023/08/04 06:48:58;;;;;;;3.17;1.77;;;16.60;99.90;;;;;;5090190;28;20035;-80
2023/08/04 06:51:24;;;;;;;2.58;1.58;;;16.80;99.90;;;;;;5110428;28;20043;-80
2023/08/04 06:53:49;;;;;;;;;;;16.80;99.90;;;;;;5094326;28;20086;-79
2023/08/04 06:56:15;;;;;;;3.97;1.70;;;16.90;99.90;;;;;;5093711;28;19941;-79
2023/08/04 06:58:41;;;;;;;1.90;1.70;;;17.00;99.90;;;;;;5078645;28;20126;-78
2023/08/04 07:01:07;;;;;;;1.73;1.63;;;17.10;99.90;;;;;;5096179;28;20050;-79
2023/08/04 07:03:32;;;;;;;;;;;17.10;99.90;;;;;;5075636;28;20379;-78
2023/08/04 07:05:59;;;;;;;3.17;1.85;;;17.00;99.90;;;;;;5075255;28;19942;-79
2023/08/04 07:08:25;;;;;;;3.90;1.90;;;17.10;99.90;;;;;;5078407;28;20502;-79
2023/08/04 07:10:51;;;;;;;;;;;17.10;99.90;;;;;;5090494;28;20142;-79
2023/08/04 07:13:16;;;;;;;2.35;1.63;;;17.20;99.90;;;;;;5079291;28;20270;-80
2023/08/04 07:15:53;;;;;;;;;;;17.20;99.90;;;;;;5094919;28;20391;-80
2023/08/04 07:18:18;;;;;;;3.67;1.80;;;17.20;99.90;;;;;;5076234;28;19922;-80
2023/08/04 07:20:44;;;;;;;;;;;17.30;99.90;;;;;;5095208;28;20039;-80
2023/08/04 07:23:09;;;;;;;2.65;1.67;;;17.30;99.90;;;;;;5075666;28;19962;-79
2023/08/04 07:25:35;;;;;;;4.40;1.75;;;17.30;99.90;;;;;;5092700;28;20050;-79
2023/08/04 07:28:01;;;;;;;4.13;1.98;;;17.30;99.90;;;;;;5093994;28;20657;-80
2023/08/04 07:30:26;;;;;;;;;;;17.30;99.90;;;;;;5094309;28;20427;-79
2023/08/04 07:32:52;;;;;;;3.38;1.75;;;17.30;99.90;;;;;;5093058;28;19935;-79
2023/08/04 07:35:18;;;;;;;4.50;1.80;;;17.30;99.90;;;;;;5058496;28;20055;-80
2023/08/04 07:37:44;;;;;;;6.38;2.00;;;17.40;99.90;;;;;;5092185;28;20038;-80
2023/08/04 07:40:11;;;;;;;3.58;1.83;;;17.40;99.90;;;;;;5091545;28;20139;-76
2023/08/04 07:42:36;;;;;;;2.55;1.75;;;17.50;99.90;;;;;;5073902;28;20044;-76
2023/08/04 07:45:02;;;;;;;;;;;17.60;99.90;;;;;;5092984;28;20125;-76
2023/08/04 07:47:28;;;;;;;3.50;1.65;;;17.60;99.90;;;;;;5093501;28;19923;-78
2023/08/04 07:49:53;;;;;;;;;;;17.80;99.90;;;;;;5092055;28;20134;-78
2023/08/04 07:52:19;;;;;;;3.85;1.65;;;17.90;99.90;;;;;;5087956;28;19928;-79
2023/08/04 07:54:44;;;;;;;;;;;18.10;99.90;;;;;;5092899;28;20048;-78
2023/08/04 07:57:10;;;;;;;3.25;1.60;;;18.10;99.90;;;;;;5072510;28;20335;-78
2023/08/04 07:59:35;;;;;;;;;;;18.10;99.90;;;;;;5075842;28;20449;-78
2023/08/04 08:02:01;;;;;;;3.88;1.60;;;18.10;99.90;;;;;;5087885;28;19939;-79
2023/08/04 08:04:27;;;;;;;;;;;18.00;99.90;;;;;;5093445;28;20046;-78
2023/08/04 08:06:52;;;;;;;5.05;1.92;;;17.70;99.90;;;;;;5092532;28;20507;-79
2023/08/04 08:09:18;;;;;;;4.88;1.67;;;17.50;99.90;;;;;;5075132;28;20039;-79
2023/08/04 08:11:43;;;;;;;;;;;17.40;99.90;;;;;;5094045;28;20048;-79
2023/08/04 08:14:09;;;;;;;3.60;1.40;;;17.10;99.90;;;;;;5097159;28;19930;-79
2023/08/04 08:16:35;;;;;;;4.63;1.40;;;17.00;99.90;;;;;;5093898;28;20424;-79
2023/08/04 08:19:01;;;;;;;3.13;1.60;;;16.90;99.90;;;;;;5094838;28;20108;-80
2023/08/04 08:21:27;;;;;;;6.38;1.92;;;16.80;99.90;;;;;;5077265;28;20067;-80
2023/08/04 08:23:53;;;;;;;;;;;16.70;99.90;;;;;;5093921;28;20115;-78
2023/08/04 08:26:18;;;;;;;2.78;1.67;;;16.80;99.90;;;;;;5093040;28;20354;-80
2023/08/04 08:28:44;;;;;;;3.42;1.60;;;16.90;99.90;;;;;;5073925;28;20047;-79
2023/08/04 08:31:09;;;;;;;5.25;1.60;;;17.00;99.90;;;;;;5091177;28;20043;-79
2023/08/04 08:33:35;;;;;;;2.38;1.30;;;17.20;99.90;;;;;;5059830;28;20036;-79
2023/08/04 08:36:01;;;;;;;;;;;17.50;99.90;;;;;;5093488;28;20035;-79
2023/08/04 08:38:26;;;;;;;2.83;1.42;;;17.70;99.90;;;;;;5111009;28;19961;-79
2023/08/04 08:40:52;;;;;;;3.05;1.42;;;17.80;99.90;;;;;;5092844;28;20394;-79
2023/08/04 08:43:18;;;;;;;;;;;17.80;99.90;;;;;;5060612;28;20035;-78
2023/08/04 08:45:44;;;;;;;3.28;1.70;;;17.60;99.90;;;;;;5091288;28;20410;-78
2023/08/04 08:48:11;;;;;;;3.78;1.48;;;17.50;99.90;;;;;;5091803;28;20502;-76
2023/08/04 08:50:39;;;;;;;4.00;1.48;;;17.20;99.90;;;;;;5089053;28;20075;-77
2023/08/04 08:53:20;;;;;;;2.33;1.20;;;17.00;99.90;;;;;;5076322;28;20043;-77
2023/08/04 08:55:47;;;;;;;4.50;1.52;;;17.00;99.90;;;;;;5088260;28;20754;-78
2023/08/04 08:58:14;;;;;;;3.67;1.45;;;16.90;99.90;;;;;;5088113;28;20070;-77
2023/08/04 09:00:39;;;;;;;3.70;1.60;;;16.90;99.90;;;;;;5090717;28;20039;-77
2023/08/04 09:03:05;;;;;;;;;;;17.00;99.90;;;;;;5092710;28;20039;-76
2023/08/04 09:05:32;;;;;;;2.90;1.30;;;17.10;99.90;;;;;;5090783;28;20446;-77
2023/08/04 09:07:58;;;;;;;3.25;1.20;;;17.40;99.90;;;;;;5055652;28;20598;-76
2023/08/04 09:10:23;;;;;;;;;;;17.50;99.90;;;;;;5072404;28;20487;-76
2023/08/04 09:12:51;;;;;;;3.70;1.50;;;17.70;99.90;;;;;;5086273;28;19916;-76
2023/08/04 09:15:17;;;;;;;4.25;1.38;;;18.10;99.90;;;;;;5083275;28;20232;-76
2023/08/04 09:17:44;;;;;;;;;;;18.10;99.90;;;;;;5072710;28;20545;-76
2023/08/04 09:20:26;;;;;;;2.67;1.15;;;18.20;99.90;;;;;;5088074;28;20280;-77
2023/08/04 09:22:51;;;;;;;4.68;1.60;;;18.10;99.90;;;;;;5084605;28;20036;-77
2023/08/04 09:25:17;;;;;;;;;;;18.10;99.90;;;;;;5071837;28;20047;-76
2023/08/04 09:27:43;;;;;;;5.65;1.63;;;18.10;99.90;;;;;;5084028;28;19974;-77
2023/08/04 09:30:10;;;;;;;4.07;1.40;;;18.10;99.90;;;;;;5089201;28;20076;-77
2023/08/04 09:32:45;;;;;;;6.68;1.70;;;18.10;99.90;;;;;;5086140;28;20087;-77
2023/08/04 09:35:11;;;;;;;7.93;1.85;;;17.80;99.90;;;;;;5064754;28;20047;-77
2023/08/04 09:37:38;;;;;;;3.17;1.58;;;17.50;99.90;;;;;;5075508;28;20075;-77
2023/08/04 09:40:25;;;;;;;3.85;1.55;;;17.40;99.90;;;;;;5071318;28;20032;-77
2023/08/04 09:42:58;;;;;;;6.85;2.20;;;17.10;99.90;;;;;;5066771;28;20080;-77
2023/08/04 09:45:24;;;;;;;3.45;1.42;;;17.00;99.90;;;;;;5085833;28;20036;-77
2023/08/04 09:47:51;;;;;;;;;;;17.00;99.90;;;;;;5089312;28;20146;-77
2023/08/04 09:50:21;;;;;;;4.63;2.10;;;17.10;99.90;;;;;;5085827;28;19919;-77
2023/08/04 09:52:47;;;;;;;2.67;1.40;;;17.20;99.90;;;;;;5080521;28;20048;-78
2023/08/04 09:55:12;;;;;;;;;;;17.50;99.90;;;;;;5086681;28;20502;-77
2023/08/04 09:57:39;;;;;;;4.00;1.60;;;17.60;99.90;;;;;;5087001;28;19997;-77
2023/08/04 10:00:09;;;;;;;2.65;1.45;;;17.60;99.90;;;;;;5084674;28;20085;-77
2023/08/04 10:02:35;;;;;;;2.67;1.48;;;17.80;99.90;;;;;;5092538;28;20036;-78
2023/08/04 10:05:02;;;;;;;4.40;1.70;;;18.00;99.90;;;;;;5091948;28;20032;-78
2023/08/04 10:07:30;;;;;;;3.85;1.40;;;18.10;99.90;;;;;;5075213;28;20053;-78
2023/08/04 10:09:56;;;;;;;2.72;1.30;;;18.40;99.90;;;;;;5055436;28;20514;-79
2023/08/04 10:12:23;;;;;;;1.95;1.17;;;18.40;99.90;;;;;;5077608;28;20036;-79
2023/08/04 10:14:49;;;;;;;3.65;1.25;;;18.70;99.90;;;;;;5072308;28;20044;-79
2023/08/04 10:17:14;;;;;;;;;;;18.90;99.90;;;;;;5054687;28;20486;-79
2023/08/04 10:19:40;;;;;;;2.80;1.20;;;18.80;99.90;;;;;;5054548;28;19916;-79
2023/08/04 10:22:10;;;;;;;;;;;18.80;85.40;;;;;;5071102;28;20731;-80
2023/08/04 10:24:42;;;;;;;2.55;0.80;;;18.80;99.90;;;;;;5057269;28;20319;-79
2023/08/04 10:27:20;;;;;;;3.42;0.85;;;18.80;28.90;;;;;;5072009;28;20492;-79
2023/08/04 10:29:59;;;;;;;1.40;0.90;;;19.10;99.90;;;;;;5070813;28;20044;-79
2023/08/04 10:32:38;;;;;;;3.05;0.90;;;19.50;99.90;;;;;;5071999;28;20123;-80
2023/08/04 10:35:16;;;;;;;5.25;1.73;;;19.70;1.00;;;;;;5068326;28;20050;-79
2023/08/04 10:37:50;;;;;;;2.92;1.02;;;19.90;1.00;;;;;;5073260;28;20052;-79
2023/08/04 10:40:34;;;;;;;2.88;1.00;;;19.80;99.90;;;;;;5071944;28;20040;-79
2023/08/04 10:43:06;;;;;;;3.00;1.10;;;20.00;1.00;;;;;;5072132;28;20119;-79
2023/08/04 10:45:52;;;;;;;1.92;0.95;;;20.30;99.90;;;;;;5071992;28;20135;-79
2023/08/04 10:48:19;;;;;;;2.20;0.90;;;20.30;99.90;;;;;;5071567;28;20037;-79
2023/08/04 10:50:45;;;;;;;3.97;1.00;;;19.90;99.90;;;;;;5072364;28;20052;-79
2023/08/04 10:53:12;;;;;;;2.53;1.00;;;19.50;99.90;;;;;;5035847;28;20051;-79
2023/08/04 10:55:50;;;;;;;2.30;0.80;;;19.20;99.90;;;;;;5068800;28;20508;-79
2023/08/04 10:58:16;;;;;;;2.30;0.77;;;19.70;99.90;;;;;;5071746;28;20146;-79
2023/08/04 11:00:45;;;;;;;1.17;0.65;;;20.10;99.90;;;;;;5070670;28;20125;-76
2023/08/04 11:03:26;;;;;;;2.42;0.80;;;20.00;99.90;;;;;;5060697;28;20043;-76
2023/08/04 11:05:53;;;;;;;2.97;1.00;;;19.70;23.40;;;;;;5057776;28;20499;-78
2023/08/04 11:08:20;;;;;;;2.58;1.08;;;19.50;99.90;;;;;;5094977;28;20043;-77
2023/08/04 11:10:51;;;;;;;2.60;1.00;;;19.40;99.90;;;;;;5094310;28;20130;-77
2023/08/04 11:13:21;;;;;;;2.42;1.00;;;19.30;1.00;;;;;;5090197;28;20035;-77
2023/08/04 11:15:48;;;;;;;2.80;0.90;;;19.40;99.90;;;;;;5093832;28;20497;-77
2023/08/04 11:18:44;;;;;;;2.92;0.90;;;19.70;99.90;;;;;;5075249;28;20071;-78
2023/08/04 11:21:09;;;;;;;1.85;0.75;;;20.00;47.30;;;;;;5057581;28;20134;-77
2023/08/04 11:23:35;;;;;;;2.58;0.90;;;20.40;99.90;;;;;;5092896;28;20461;-77
2023/08/04 11:26:02;;;;;;;2.13;0.80;;;20.80;77.60;;;;;;5092688;28;20070;-77
2023/08/04 11:28:29;;;;;;;2.05;0.80;;;21.00;99.90;;;;;;5089742;28;20047;-77
2023/08/04 11:31:05;;;;;;;4.88;1.20;;;20.60;99.90;;;;;;5074869;28;20087;-77
2023/08/04 11:33:32;;;;;;;3.45;0.95;;;20.30;99.90;;;;;;5073677;28;20028;-77
2023/08/04 11:36:00;;;;;;;3.95;1.27;;;20.00;1.00;;;;;;5087505;28;20048;-77
2023/08/04 11:38:26;;;;;;;3.35;1.00;;;20.00;1.00;;;;;;5092456;28;20044;-77
2023/08/04 11:41:00;;;;;;;4.50;1.40;;;19.80;99.90;;;;;;5091775;28;20062;-77
2023/08/04 11:43:26;;;;;;;1.77;0.80;;;19.90;1.00;;;;;;5093264;28;20120;-78
2023/08/04 11:45:55;;;;;;;2.40;0.75;;;20.20;99.90;;;;;;5091445;28;20081;-77
2023/08/04 11:48:21;;;;;;;1.80;1.00;;;20.20;1.00;;;;;;5090984;28;20045;-78
2023/08/04 11:50:48;;;;;;;2.03;1.08;;;20.40;16.20;;;;;;5088973;28;20410;-77
2023/08/04 11:53:17;;;;;;;2.38;0.90;;;20.70;99.90;;;;;;5091246;28;20141;-78
2023/08/04 11:55:59;;;;;;;4.05;1.05;;;20.80;99.90;;;;;;5089348;28;20134;-77
2023/08/04 11:58:43;;;;;;;2.45;0.93;;;20.70;1.00;;;;;;5092071;28;20055;-77
2023/08/04 12:01:27;;;;;;;2.90;1.05;;;20.60;99.90;;;;;;5092141;28;20086;-78
2023/08/04 12:03:53;;;;;;;3.10;1.15;;;20.50;1.00;;;;;;5095140;28;20139;-77
2023/08/04 12:06:21;;;;;;;3.42;1.08;;;20.40;99.90;;;;;;5093139;27;20122;-77
2023/08/04 12:08:59;;;;;;;2.75;1.10;;;20.50;1.00;;;;;;5104386;27;20054;-77
2023/08/04 12:11:26;;;;;;;3.88;1.08;;;21.00;99.90;;;;;;5092534;28;20490;-77
2023/08/04 12:14:13;;;;;;;3.53;1.35;;;21.00;99.90;;;;;;5090738;28;20462;-77
2023/08/04 12:16:54;;;;;;;2.58;1.20;;;21.30;99.90;;;;;;5074948;28;20047;-77
2023/08/04 12:19:22;;;;;;;3.38;1.20;;;21.70;1.00;;;;;;5089295;28;20146;-77
2023/08/04 12:21:51;;;;;;;3.50;1.10;;;21.30;99.90;;;;;;5090253;28;20050;-77
2023/08/04 12:24:17;;;;;;;2.35;1.10;;;20.80;99.90;;;;;;5088398;28;20051;-77
2023/08/04 12:26:43;;;;;;;3.83;1.45;;;20.50;1.00;;;;;;5089741;28;20079;-77
2023/08/04 12:29:09;;;;;;;3.67;1.05;;;20.30;99.90;;;;;;5091192;28;20067;-77
2023/08/04 12:31:36;;;;;;;2.60;1.08;;;20.00;99.90;;;;;;5071606;28;20054;-77
2023/08/04 12:34:02;;;;;;;2.70;1.17;;;20.10;1.60;;;;;;5091028;28;20074;-77
2023/08/04 12:36:27;;;;;;;1.98;0.80;;;20.00;99.90;;;;;;5087609;27;20072;-77
2023/08/04 12:38:53;;;;;;;3.53;1.10;;;20.10;99.90;;;;;;5099010;28;20044;-77
2023/08/04 12:41:19;;;;;;;3.10;1.20;;;20.30;99.90;;;;;;5091980;28;20223;-77
2023/08/04 12:43:44;;;;;;;2.83;1.10;;;20.50;99.90;;;;;;5090611;28;20043;-77
2023/08/04 12:46:10;;;;;;;4.07;1.20;;;20.50;69.50;;;;;;5094278;28;20423;-77
2023/08/04 12:48:36;;;;;;;2.17;0.93;;;20.60;1.00;;;;;;5091366;28;20043;-77
2023/08/04 12:51:02;;;;;;;4.85;1.20;;;20.70;1.00;;;;;;5092263;28;20028;-77
2023/08/04 12:53:27;;;;;;;3.83;1.15;;;20.70;1.00;;;;;;5091600;28;20046;-77
2023/08/04 12:55:53;;;;;;;3.58;1.25;;;20.50;1.00;;;;;;5088767;28;20047;-77
2023/08/04 12:58:18;;;;;;;;;;;20.50;2.00;;;;;;5092119;28;20398;-77